Etusivu
METAR-TAF:

METAR-TAF

Lentoasemat :

Flin Flon, Manitoba, Kanada

Leveyspiiri: 54-41N, Pituuspiiri: 101-41W, korkeus merenpinnasta: 304 m

Tämänhetkinen sää

Tämä raportti tehtiin 2 tuntia ja 9 minuuttia sitten, kello 23.00 UTC
Tuuli 4 kn idästä, vaihdellen koillisen ja idän/kaakon välillä
Lämpötila 13°C
Kosteus 88%
Ilmanpaine 1002 hPa
Näkyvyys: 24.1 km
Pilvistä 7000 ft:n korkeudessa

METAR: CYFO 032300Z 08004KT 040V120 15SM OVC070 13/11 A2958 RMK AC8 LAST OBS/NEXT 041100UTC SLP027 DENSITY ALT 1500FT

Aika: 20:09 (01:09 UTC)


TAF: puuttuu

Säähavainnot ja -ennusteet yli 4000 lentoasemalta (METAR- ja TAF-raportit).

Käytössä olevat sääasemat on merkitty karttaan keltaisilla ja punaisilla pisteillä.

Aseta hiiri pisteen päälle nähdäksesi sääaseman nimen.

Klikkaa sitten nähdäksesi säähavainnot ja -ennusteet.

Kartan vaihtaminen: klikkaa mustalla rastilla varustettuja vihreitä pisteitä, niin voit zoomata sisään; viivalla varustettua vihreää pistettä, niin voit zoomata ulos tai vihreitä nuolia, niin pääset viereisille kartoille.


METAR-TAF: